createdAt,value
2019-02-06T00:01:50.076Z,35.60
2019-02-06T00:04:20.714Z,35.17
2019-02-06T00:06:50.912Z,34.40
2019-02-06T00:09:21.440Z,34.33
2019-02-06T00:11:53.127Z,35.30
2019-02-06T00:14:23.431Z,35.60
2019-02-06T00:16:53.551Z,34.13
2019-02-06T00:19:23.990Z,32.17
2019-02-06T00:21:54.438Z,33.87
2019-02-06T00:24:24.485Z,32.57
2019-02-06T00:26:54.740Z,32.10
2019-02-06T00:29:24.937Z,33.03
2019-02-06T00:31:55.384Z,33.40
2019-02-06T00:34:25.869Z,31.67
2019-02-06T00:36:56.162Z,31.30
2019-02-06T00:39:27.780Z,31.53
2019-02-06T00:41:58.232Z,30.47
2019-02-06T00:44:28.282Z,31.60
2019-02-06T00:46:58.562Z,31.27
2019-02-06T00:49:30.466Z,30.60
2019-02-06T00:52:00.745Z,32.00
2019-02-06T00:54:30.999Z,31.73
2019-02-06T00:57:01.417Z,31.63
2019-02-06T00:59:33.458Z,30.50
2019-02-06T01:02:04.067Z,30.80
2019-02-06T01:04:34.249Z,32.73
2019-02-06T01:07:04.846Z,31.62
2019-02-06T01:09:35.412Z,30.80
2019-02-06T01:12:05.665Z,32.00
2019-02-06T01:14:36.057Z,33.10
2019-02-06T01:17:07.196Z,32.27
2019-02-06T01:19:37.936Z,32.17
2019-02-06T01:22:08.171Z,30.90
2019-02-06T01:24:38.255Z,30.50
2019-02-06T01:27:08.444Z,31.10
2019-02-06T01:29:40.361Z,29.57
2019-02-06T01:32:11.151Z,30.08
2019-02-06T01:34:41.600Z,30.52
2019-02-06T01:37:12.180Z,32.33
2019-02-06T01:39:42.735Z,32.05
2019-02-06T01:42:14.876Z,31.30
2019-02-06T01:44:45.388Z,32.40
2019-02-06T01:47:15.759Z,31.02
2019-02-06T01:49:47.418Z,31.42
2019-02-06T01:52:20.540Z,30.32
2019-02-06T01:54:51.195Z,31.07
2019-02-06T01:57:21.613Z,30.97
2019-02-06T01:59:53.788Z,29.55
2019-02-06T02:02:24.044Z,31.62
2019-02-06T02:04:54.398Z,30.88
2019-02-06T02:07:24.632Z,31.90
2019-02-06T02:09:55.486Z,30.00
2019-02-06T02:12:26.150Z,29.85
2019-02-06T02:14:56.457Z,30.72
2019-02-06T02:17:27.010Z,30.17
2019-02-06T02:19:57.375Z,30.17
2019-02-06T02:22:27.930Z,29.55
2019-02-06T02:24:58.646Z,29.12
2019-02-06T02:27:29.052Z,29.82
2019-02-06T02:30:00.883Z,30.85
2019-02-06T02:32:32.839Z,31.23
2019-02-06T02:35:03.107Z,30.25
2019-02-06T02:37:33.338Z,31.37
2019-02-06T02:40:05.644Z,30.37
2019-02-06T02:42:36.139Z,31.93
2019-02-06T02:45:10.163Z,30.40
2019-02-06T02:47:40.982Z,30.43
2019-02-06T02:50:13.542Z,30.88
2019-02-06T02:52:45.896Z,32.90
2019-02-06T02:55:16.038Z,30.12
2019-02-06T02:57:46.683Z,30.52
2019-02-06T03:00:20.575Z,29.75
2019-02-06T03:03:02.327Z,31.50
2019-02-06T03:05:35.480Z,31.70
2019-02-06T03:08:05.956Z,30.23
2019-02-06T03:10:36.406Z,30.92
2019-02-06T03:13:07.101Z,30.57
2019-02-06T03:15:37.567Z,30.92
2019-02-06T03:18:07.895Z,31.12
2019-02-06T03:20:38.370Z,29.50
2019-02-06T03:23:08.484Z,30.20
2019-02-06T03:25:38.809Z,29.80
2019-02-06T03:28:12.017Z,29.85
2019-02-06T03:30:42.196Z,30.57
2019-02-06T03:33:14.120Z,29.32
2019-02-06T03:35:45.939Z,29.40
2019-02-06T03:38:17.596Z,29.55
2019-02-06T03:40:49.494Z,31.10
2019-02-06T03:43:19.998Z,29.67
2019-02-06T03:45:50.537Z,30.97
2019-02-06T03:48:20.933Z,31.00
2019-02-06T03:50:51.255Z,29.70
2019-02-06T03:53:21.985Z,29.98
2019-02-06T03:55:53.455Z,30.90
2019-02-06T03:58:25.418Z,29.57
2019-02-06T04:00:56.874Z,31.15
2019-02-06T04:03:27.233Z,29.63
2019-02-06T04:05:57.525Z,28.57
2019-02-06T04:08:27.777Z,30.27
2019-02-06T04:10:57.982Z,30.45
2019-02-06T04:13:28.103Z,30.20
2019-02-06T04:15:58.475Z,30.20
2019-02-06T04:18:28.682Z,28.95
2019-02-06T04:21:01.221Z,30.15
2019-02-06T04:23:32.853Z,30.52
2019-02-06T04:26:03.150Z,30.45
2019-02-06T04:28:34.398Z,30.88
2019-02-06T04:31:04.773Z,29.48
2019-02-06T04:33:35.082Z,30.00
2019-02-06T04:36:05.783Z,30.72
2019-02-06T04:38:36.378Z,32.33
2019-02-06T04:41:07.972Z,29.52
2019-02-06T04:43:38.439Z,29.32
2019-02-06T04:46:08.754Z,28.47
2019-02-06T04:48:39.841Z,30.20
2019-02-06T04:51:11.673Z,30.12
2019-02-06T04:53:41.868Z,29.00
2019-02-06T04:56:14.035Z,30.20
2019-02-06T04:58:44.361Z,29.20
2019-02-06T05:01:15.827Z,30.02
2019-02-06T05:03:46.221Z,30.80
2019-02-06T05:06:18.224Z,31.55
2019-02-06T05:08:48.692Z,31.23
2019-02-06T05:11:18.987Z,30.10
2019-02-06T05:13:49.423Z,30.43
2019-02-06T05:16:19.865Z,31.02
2019-02-06T05:18:51.907Z,33.40
2019-02-06T05:21:21.978Z,32.00
2019-02-06T05:23:52.669Z,30.70
2019-02-06T05:26:22.773Z,30.32
2019-02-06T05:28:53.433Z,30.80
2019-02-06T05:31:24.141Z,32.45
2019-02-06T05:33:54.489Z,32.03
2019-02-06T05:36:24.914Z,31.62
2019-02-06T05:38:55.187Z,33.45
2019-02-06T05:41:25.423Z,32.42
2019-02-06T05:43:56.082Z,34.63
2019-02-06T05:46:26.398Z,33.50
2019-02-06T05:48:57.116Z,35.80
2019-02-06T05:51:29.391Z,33.25
2019-02-06T05:54:00.443Z,33.58
2019-02-06T05:56:31.329Z,39.33
2019-02-06T05:59:01.719Z,37.08
2019-02-06T06:01:32.353Z,36.77
2019-02-06T06:04:04.640Z,35.48
2019-02-06T06:06:35.398Z,36.42
2019-02-06T06:09:08.179Z,37.50
2019-02-06T06:11:40.785Z,35.30
2019-02-06T06:14:10.875Z,33.63
2019-02-06T06:16:42.316Z,35.52
2019-02-06T06:19:12.573Z,37.10
2019-02-06T06:21:43.011Z,36.80
2019-02-06T06:24:13.270Z,34.35
2019-02-06T06:26:43.721Z,35.40
2019-02-06T06:29:14.078Z,36.08
2019-02-06T06:31:44.948Z,37.17
2019-02-06T06:34:15.471Z,37.23
2019-02-06T06:36:46.104Z,37.40
2019-02-06T06:39:16.304Z,37.05
2019-02-06T06:41:48.191Z,35.92
2019-02-06T06:44:19.905Z,37.08
2019-02-06T06:46:50.248Z,35.90
2019-02-06T06:49:20.452Z,37.55
2019-02-06T06:51:50.739Z,35.85
2019-02-06T06:54:22.624Z,38.75
2019-02-06T06:56:54.288Z,36.55
2019-02-06T06:59:24.929Z,35.58
2019-02-06T07:01:57.150Z,35.63
2019-02-06T07:04:30.446Z,33.58
2019-02-06T07:07:01.376Z,34.27
2019-02-06T07:09:33.382Z,35.53
2019-02-06T07:12:03.833Z,37.13
2019-02-06T07:14:34.031Z,36.45
2019-02-06T07:17:05.688Z,35.13
2019-02-06T07:19:36.006Z,37.53
2019-02-06T07:22:06.272Z,35.43
2019-02-06T07:24:38.222Z,38.28
2019-02-06T07:27:08.828Z,35.23
2019-02-06T07:29:39.320Z,35.68
2019-02-06T07:32:09.764Z,37.83
2019-02-06T07:34:40.182Z,36.30
2019-02-06T07:37:10.656Z,36.15
2019-02-06T07:39:41.016Z,33.25
2019-02-06T07:42:11.793Z,34.10
2019-02-06T07:44:42.261Z,31.67
2019-02-06T07:47:12.874Z,33.70
2019-02-06T07:49:43.141Z,32.13
2019-02-06T07:52:13.271Z,32.13
2019-02-06T07:54:43.632Z,34.70
2019-02-06T07:57:14.176Z,30.72
2019-02-06T07:59:44.620Z,32.17
2019-02-06T08:02:15.625Z,30.62
2019-02-06T08:04:45.882Z,31.53
2019-02-06T08:07:16.327Z,32.33
2019-02-06T08:09:47.777Z,28.80
2019-02-06T08:12:19.806Z,30.30
2019-02-06T08:14:50.860Z,28.83
2019-02-06T08:17:21.551Z,30.00
2019-02-06T08:19:52.356Z,29.47
2019-02-06T08:22:22.967Z,29.93
2019-02-06T08:24:53.397Z,29.85
2019-02-06T08:27:26.313Z,30.13
2019-02-06T08:29:55.915Z,28.80
2019-02-06T08:32:26.418Z,31.53
2019-02-06T08:34:56.879Z,28.90
2019-02-06T08:37:28.605Z,29.15
2019-02-06T08:40:00.413Z,27.98
2019-02-06T08:42:31.247Z,30.77
2019-02-06T08:45:01.655Z,29.20
2019-02-06T08:47:34.551Z,27.20
2019-02-06T08:50:07.441Z,27.63
2019-02-06T08:52:37.763Z,28.03
2019-02-06T08:55:11.644Z,27.93
2019-02-06T08:57:42.277Z,26.87
2019-02-06T09:00:19.466Z,25.60
2019-02-06T09:02:49.745Z,27.07
2019-02-06T09:05:21.288Z,27.23
2019-02-06T09:07:51.837Z,25.27
2019-02-06T09:10:24.608Z,23.87
2019-02-06T09:12:55.830Z,25.50
2019-02-06T09:15:27.265Z,24.67
2019-02-06T09:17:59.627Z,24.12
2019-02-06T09:20:31.245Z,22.60
2019-02-06T09:23:01.685Z,24.47
2019-02-06T09:25:31.740Z,24.90
2019-02-06T09:28:01.929Z,26.20
2019-02-06T09:30:35.160Z,24.93
2019-02-06T09:33:06.855Z,22.32
2019-02-06T09:35:37.058Z,24.07
2019-02-06T09:38:08.819Z,24.30
2019-02-06T09:40:39.199Z,24.00
2019-02-06T09:43:10.967Z,23.27
2019-02-06T09:45:41.456Z,23.00
2019-02-06T09:48:13.756Z,22.90
2019-02-06T09:50:46.917Z,23.97
2019-02-06T09:53:17.359Z,23.47
2019-02-06T09:55:47.775Z,23.57
2019-02-06T09:58:18.346Z,23.90
2019-02-06T10:00:50.662Z,24.13
2019-02-06T10:03:22.554Z,19.93
2019-02-06T10:05:52.755Z,23.40
2019-02-06T10:08:24.362Z,22.80
2019-02-06T10:10:54.461Z,21.67
2019-02-06T10:13:25.251Z,21.07
2019-02-06T10:15:55.508Z,22.53
2019-02-06T10:18:27.344Z,20.53
2019-02-06T10:20:57.569Z,21.00
2019-02-06T10:23:29.323Z,20.57
2019-02-06T10:25:59.532Z,20.93
2019-02-06T10:28:30.008Z,20.20
2019-02-06T10:31:00.633Z,21.60
2019-02-06T10:33:31.169Z,19.07
2019-02-06T10:36:01.366Z,20.63
2019-02-06T10:38:31.639Z,19.70
2019-02-06T10:41:04.555Z,20.33
2019-02-06T10:43:35.915Z,18.83
2019-02-06T10:46:06.828Z,18.13
2019-02-06T10:48:37.443Z,17.80
2019-02-06T10:51:07.836Z,18.27
2019-02-06T10:53:38.059Z,18.73
2019-02-06T10:56:08.490Z,18.07
2019-02-06T10:58:40.641Z,16.30
2019-02-06T11:01:12.387Z,17.53
2019-02-06T11:03:42.759Z,17.50
2019-02-06T11:06:13.160Z,18.10
2019-02-06T11:08:45.243Z,16.43
2019-02-06T11:11:15.914Z,16.00
2019-02-06T11:13:46.318Z,15.80
2019-02-06T11:16:16.813Z,16.37
2019-02-06T11:18:47.415Z,17.77
2019-02-06T11:21:19.668Z,17.77
2019-02-06T11:23:50.907Z,17.27
2019-02-06T11:26:21.249Z,16.90
2019-02-06T11:28:51.537Z,18.90
2019-02-06T11:31:21.729Z,18.53
2019-02-06T11:33:52.365Z,18.30
2019-02-06T11:36:24.398Z,17.67
2019-02-06T11:38:55.349Z,18.63
2019-02-06T11:41:25.710Z,19.03
2019-02-06T11:43:56.267Z,18.30
2019-02-06T11:46:26.826Z,18.07
2019-02-06T11:48:57.257Z,18.27
2019-02-06T11:51:27.729Z,18.07
2019-02-06T11:53:58.390Z,18.67
2019-02-06T11:56:28.969Z,19.93
2019-02-06T11:59:00.663Z,19.67
2019-02-06T12:01:31.269Z,19.67
2019-02-06T12:04:01.825Z,19.60
2019-02-06T12:06:32.347Z,20.73
2019-02-06T12:09:02.947Z,20.50
2019-02-06T12:11:34.756Z,19.87
2019-02-06T12:14:07.462Z,20.67
2019-02-06T12:16:38.213Z,20.43
2019-02-06T12:19:08.532Z,19.50
2019-02-06T12:21:38.935Z,21.10
2019-02-06T12:24:09.312Z,20.50
2019-02-06T12:26:39.744Z,20.33
2019-02-06T12:29:10.437Z,20.33
2019-02-06T12:31:42.338Z,19.10
2019-02-06T12:34:12.842Z,21.50
2019-02-06T12:36:43.139Z,21.73
2019-02-06T12:39:13.397Z,19.73
2019-02-06T12:41:43.772Z,19.47
2019-02-06T12:44:14.047Z,20.43
2019-02-06T12:46:44.870Z,19.83
2019-02-06T12:49:15.224Z,19.33
2019-02-06T12:51:45.510Z,20.63
2019-02-06T12:54:15.843Z,21.00
2019-02-06T12:56:46.252Z,21.03
2019-02-06T12:59:16.535Z,20.43
2019-02-06T13:01:46.892Z,19.67
2019-02-06T13:04:17.171Z,20.03
2019-02-06T13:06:47.316Z,20.27
2019-02-06T13:09:17.537Z,20.97
2019-02-06T13:11:49.281Z,19.60
2019-02-06T13:14:19.847Z,19.37
2019-02-06T13:16:49.957Z,20.50
2019-02-06T13:19:21.685Z,18.53
2019-02-06T13:21:53.576Z,20.37
2019-02-06T13:24:24.388Z,18.70
2019-02-06T13:26:54.522Z,18.90
2019-02-06T13:29:25.232Z,18.43
2019-02-06T13:31:55.317Z,19.87
2019-02-06T13:34:28.081Z,18.60
2019-02-06T13:36:58.449Z,18.00
2019-02-06T13:39:28.672Z,18.77
2019-02-06T13:41:58.896Z,19.17
2019-02-06T13:44:30.342Z,18.20
2019-02-06T13:47:00.978Z,18.90
2019-02-06T13:49:32.477Z,18.57
2019-02-06T13:52:02.822Z,20.03
2019-02-06T13:54:33.306Z,18.90
2019-02-06T13:57:03.515Z,22.27
2019-02-06T13:59:33.773Z,20.03
2019-02-06T14:02:04.594Z,21.17
2019-02-06T14:04:36.565Z,20.63
2019-02-06T14:07:07.209Z,19.27
2019-02-06T14:09:37.886Z,19.83
2019-02-06T14:12:08.011Z,19.17
2019-02-06T14:14:38.271Z,20.10
2019-02-06T14:17:08.445Z,20.33
2019-02-06T14:19:38.640Z,20.63
2019-02-06T14:22:10.434Z,20.47
2019-02-06T14:24:43.871Z,20.70
2019-02-06T14:27:17.398Z,19.33
2019-02-06T14:30:10.925Z,19.87
2019-02-06T14:32:50.017Z,19.20
2019-02-06T14:35:40.764Z,20.07
2019-02-06T14:38:41.488Z,18.13
2019-02-06T14:41:14.933Z,19.97
2019-02-06T14:43:56.890Z,19.13
2019-02-06T14:46:32.702Z,18.60
2019-02-06T14:49:14.827Z,18.00
2019-02-06T14:52:00.181Z,19.90
2019-02-06T14:54:35.990Z,18.97
2019-02-06T14:57:09.432Z,18.83
2019-02-06T14:59:57.920Z,18.93
2019-02-06T15:02:34.459Z,18.80
2019-02-06T15:05:27.643Z,18.67
2019-02-06T15:08:16.187Z,18.50
2019-02-06T15:10:49.547Z,18.07
2019-02-06T15:13:45.637Z,19.07
2019-02-06T15:16:33.793Z,17.40
2019-02-06T15:19:21.529Z,18.37
2019-02-06T15:22:03.901Z,18.30
2019-02-06T15:24:37.415Z,18.20
2019-02-06T15:27:29.045Z,19.90
2019-02-06T15:30:35.901Z,20.03
2019-02-06T15:33:35.052Z,19.60
2019-02-06T15:36:18.650Z,20.60
2019-02-06T15:38:54.283Z,18.50
2019-02-06T15:41:45.653Z,19.60
2019-02-06T15:44:42.985Z,20.03
2019-02-06T15:47:34.584Z,20.33
2019-02-06T15:50:13.669Z,21.70
2019-02-06T15:52:53.063Z,20.67
2019-02-06T15:55:48.040Z,21.83
2019-02-06T15:58:36.515Z,22.87
2019-02-06T16:01:15.897Z,22.63
2019-02-06T16:04:16.438Z,21.63
2019-02-06T16:06:58.017Z,19.57
2019-02-06T16:09:55.770Z,20.93
2019-02-06T16:12:43.086Z,20.60
2019-02-06T16:15:28.232Z,23.33
2019-02-06T16:18:05.596Z,25.03
2019-02-06T16:20:53.786Z,22.80
2019-02-06T16:23:46.337Z,22.97
2019-02-06T16:26:37.457Z,24.30
2019-02-06T16:29:16.588Z,22.97
2019-02-06T16:32:11.300Z,22.43
2019-02-06T16:35:13.634Z,24.47
2019-02-06T16:37:58.775Z,24.33
2019-02-06T16:40:53.373Z,26.23
2019-02-06T16:43:55.248Z,24.33
2019-02-06T16:46:40.544Z,23.77
2019-02-06T16:49:31.979Z,25.13
2019-02-06T16:52:14.070Z,25.60
2019-02-06T16:55:21.051Z,25.27
2019-02-06T16:58:00.250Z,24.57
2019-02-06T17:00:52.062Z,25.17
2019-02-06T17:03:31.437Z,24.70
2019-02-06T17:06:13.589Z,24.87
2019-02-06T17:09:12.209Z,25.37
2019-02-06T17:11:51.565Z,26.83
2019-02-06T17:14:26.149Z,26.37
2019-02-06T17:17:02.737Z,28.50
2019-02-06T17:19:48.002Z,29.77
2019-02-06T17:22:34.137Z,28.03
2019-02-06T17:25:31.317Z,29.83
2019-02-06T17:28:10.330Z,26.57
2019-02-06T17:31:04.718Z,28.23
2019-02-06T17:34:08.259Z,30.43
2019-02-06T17:36:44.391Z,28.03
2019-02-06T17:39:24.506Z,29.30
2019-02-06T17:42:03.487Z,30.23
2019-02-06T17:44:45.693Z,29.97
2019-02-06T17:47:52.407Z,31.17
2019-02-06T17:50:28.356Z,31.00
2019-02-06T17:53:05.211Z,32.23
2019-02-06T17:55:35.704Z,30.27
2019-02-06T17:58:07.473Z,31.50
2019-02-06T18:00:47.007Z,33.13
2019-02-06T18:03:19.192Z,34.03
2019-02-06T18:05:50.193Z,34.27
2019-02-06T18:08:20.707Z,33.30
2019-02-06T18:10:52.803Z,30.63
2019-02-06T18:13:22.921Z,33.10
2019-02-06T18:15:54.815Z,32.40
2019-02-06T18:18:26.974Z,34.23
2019-02-06T18:20:58.870Z,34.70
2019-02-06T18:23:29.267Z,33.43
2019-02-06T18:26:00.976Z,34.47
2019-02-06T18:28:31.434Z,34.97
2019-02-06T18:31:03.688Z,34.97
2019-02-06T18:33:34.590Z,33.73
2019-02-06T18:36:06.043Z,36.00
2019-02-06T18:38:46.342Z,36.50
2019-02-06T18:41:11.859Z,35.30
2019-02-06T18:43:42.051Z,34.20
2019-02-06T18:46:12.547Z,34.80
2019-02-06T18:48:42.980Z,34.53
2019-02-06T18:51:13.365Z,34.00
2019-02-06T18:53:47.423Z,34.87
2019-02-06T18:56:19.376Z,32.77
2019-02-06T18:58:50.039Z,34.50
2019-02-06T19:01:20.710Z,35.77
2019-02-06T19:03:51.757Z,36.60
2019-02-06T19:06:22.195Z,35.30
2019-02-06T19:08:52.500Z,34.73
2019-02-06T19:11:24.701Z,36.73
2019-02-06T19:13:55.370Z,36.17
2019-02-06T19:16:25.618Z,36.70
2019-02-06T19:18:57.954Z,38.07
2019-02-06T19:21:28.456Z,37.17
2019-02-06T19:23:58.870Z,38.37
2019-02-06T19:26:29.164Z,36.10
2019-02-06T19:28:59.611Z,36.93
2019-02-06T19:31:31.319Z,36.77
2019-02-06T19:34:01.391Z,36.83
2019-02-06T19:36:31.654Z,36.30
2019-02-06T19:39:02.219Z,36.20
2019-02-06T19:41:32.605Z,37.30
2019-02-06T19:44:04.455Z,38.97
2019-02-06T19:46:34.837Z,37.00
2019-02-06T19:49:05.117Z,39.40
2019-02-06T19:51:35.494Z,37.97
2019-02-06T19:54:07.549Z,38.43
2019-02-06T19:56:39.226Z,37.50
2019-02-06T19:59:09.494Z,38.30
2019-02-06T20:01:39.932Z,39.10
2019-02-06T20:04:12.170Z,37.17
2019-02-06T20:06:44.061Z,38.87
2019-02-06T20:09:14.778Z,36.90
2019-02-06T20:11:45.094Z,38.00
2019-02-06T20:14:15.453Z,37.87
2019-02-06T20:16:47.273Z,38.50
2019-02-06T20:19:17.591Z,37.97
2019-02-06T20:21:48.149Z,36.13
2019-02-06T20:24:18.663Z,39.57
2019-02-06T20:26:49.083Z,37.57
2019-02-06T20:29:20.720Z,37.10
2019-02-06T20:31:51.245Z,36.97
2019-02-06T20:34:23.142Z,37.33
2019-02-06T20:36:53.862Z,37.47
2019-02-06T20:39:24.371Z,36.97
2019-02-06T20:41:54.947Z,36.43
2019-02-06T20:44:25.047Z,37.20
2019-02-06T20:46:55.975Z,37.03
2019-02-06T20:49:27.898Z,36.83
2019-02-06T20:51:58.572Z,35.93
2019-02-06T20:54:30.007Z,37.27
2019-02-06T20:57:11.662Z,36.87
2019-02-06T20:59:32.684Z,37.00
2019-02-06T21:02:02.993Z,37.30
2019-02-06T21:04:35.085Z,35.93
2019-02-06T21:07:05.330Z,37.47
2019-02-06T21:09:35.658Z,35.13
2019-02-06T21:12:07.448Z,35.77
2019-02-06T21:14:37.841Z,35.77
2019-02-06T21:17:09.550Z,35.53
2019-02-06T21:19:39.926Z,36.23
2019-02-06T21:22:11.908Z,37.50
2019-02-06T21:24:43.743Z,34.13
2019-02-06T21:27:14.156Z,35.60
2019-02-06T21:29:44.568Z,37.60
2019-02-06T21:32:17.033Z,35.03
2019-02-06T21:34:47.186Z,33.50
2019-02-06T21:37:17.679Z,35.20
2019-02-06T21:39:48.177Z,32.67
2019-02-06T21:42:19.589Z,32.57
2019-02-06T21:44:51.623Z,31.33
2019-02-06T21:47:24.933Z,31.67
2019-02-06T21:49:55.676Z,30.80
2019-02-06T21:52:28.908Z,29.70
2019-02-06T21:54:59.362Z,29.77
2019-02-06T21:57:31.747Z,30.07
2019-02-06T22:00:02.166Z,31.23
2019-02-06T22:02:32.596Z,30.27
2019-02-06T22:05:02.824Z,29.73
2019-02-06T22:07:33.205Z,30.90
2019-02-06T22:10:04.296Z,28.70
2019-02-06T22:12:36.031Z,27.40
2019-02-06T22:15:12.251Z,28.80
2019-02-06T22:17:42.541Z,28.57
2019-02-06T22:20:13.524Z,29.23
2019-02-06T22:22:43.936Z,29.07
2019-02-06T22:25:14.165Z,28.67
2019-02-06T22:27:44.394Z,29.13
2019-02-06T22:30:19.937Z,28.23
2019-02-06T22:32:51.926Z,29.23
2019-02-06T22:35:22.877Z,29.50
2019-02-06T22:37:53.224Z,28.83
2019-02-06T22:40:25.839Z,29.10
2019-02-06T22:42:56.137Z,28.70
2019-02-06T22:45:28.269Z,29.00
2019-02-06T22:47:58.759Z,28.10
2019-02-06T22:50:31.342Z,29.53
2019-02-06T22:53:02.806Z,29.43
2019-02-06T22:55:33.224Z,27.23
2019-02-06T22:58:03.974Z,27.73
2019-02-06T23:03:19.886Z,30.87
2019-02-06T23:05:50.226Z,29.70
2019-02-06T23:08:20.785Z,28.80
2019-02-06T23:10:51.540Z,29.17
2019-02-06T23:13:22.633Z,28.13
2019-02-06T23:15:53.117Z,29.97
2019-02-06T23:18:23.896Z,30.33
2019-02-06T23:20:54.556Z,28.40
2019-02-06T23:23:24.987Z,27.47
2019-02-06T23:25:55.765Z,27.13
2019-02-06T23:28:27.746Z,27.50
2019-02-06T23:30:58.125Z,30.30
2019-02-06T23:33:28.558Z,27.37
2019-02-06T23:36:00.142Z,29.03
2019-02-06T23:38:30.753Z,28.83
2019-02-06T23:41:01.206Z,30.07
2019-02-06T23:43:31.615Z,30.30
2019-02-06T23:46:02.021Z,29.67
2019-02-06T23:48:32.719Z,31.73
2019-02-06T23:51:05.291Z,30.63
2019-02-06T23:53:35.802Z,30.90
2019-02-06T23:56:06.258Z,30.83
2019-02-06T23:58:36.431Z,31.10
